Time;durP1;ratioP1;P1;durP2;ratioP2;P2;SDS_P1;SDS_P2;PMS_P1;PMS_P2;Temp;Humidity;BMP_temperature;BMP_pressure;BME280_temperature;BME280_humidity;BME280_pressure;Samples;Min_cycle;Max_cycle;Signal;HPM_P1;HPM_P2
2024/01/08 00:00:38;;;;;;;1.65;1.55;;;2.30;99.90;;;;;;10060477;28;20029;-64
2024/01/08 00:05:28;;;;;;;1.30;1.00;;;2.40;99.90;;;;;;10061724;28;20038;-63
2024/01/08 00:10:19;;;;;;;1.80;1.05;;;2.50;99.90;;;;;;10059486;28;20108;-63
2024/01/08 00:15:10;;;;;;;2.78;1.25;;;2.40;99.90;;;;;;10061741;28;20104;-65
2024/01/08 00:20:00;;;;;;;5.40;1.50;;;2.50;99.90;;;;;;10059541;28;20044;-64
2024/01/08 00:24:51;;;;;;;2.15;1.05;;;2.50;99.90;;;;;;10059649;28;20049;-64
2024/01/08 00:29:41;;;;;;;1.08;0.82;;;2.30;99.90;;;;;;10061506;28;20030;-67
2024/01/08 00:34:32;;;;;;;1.70;1.17;;;2.30;99.90;;;;;;10060869;28;20055;-66
2024/01/08 00:39:24;;;;;;;1.65;1.13;;;2.40;99.90;;;;;;10060554;28;20152;-63
2024/01/08 00:44:15;;;;;;;1.15;1.02;;;2.30;99.90;;;;;;10092647;28;20128;-65
2024/01/08 00:49:06;;;;;;;1.67;1.30;;;2.30;99.90;;;;;;10061191;28;20120;-63
2024/01/08 00:53:56;;;;;;;1.42;1.02;;;2.40;99.90;;;;;;10060115;28;20029;-63
2024/01/08 00:58:47;;;;;;;2.15;1.35;;;2.40;99.90;;;;;;10060189;28;20663;-74
2024/01/08 01:03:38;;;;;;;2.05;1.30;;;2.50;99.90;;;;;;10059024;28;20129;-69
2024/01/08 01:08:28;;;;;;;2.28;1.05;;;2.40;99.90;;;;;;10060073;28;20488;-66
2024/01/08 01:13:19;;;;;;;3.20;1.20;;;2.30;99.90;;;;;;10066232;28;20036;-62
2024/01/08 01:18:09;;;;;;;1.88;1.15;;;2.40;99.90;;;;;;10059524;28;21629;-68
2024/01/08 01:23:00;;;;;;;1.00;0.70;;;2.50;99.90;;;;;;10060477;28;20565;-65
2024/01/08 01:27:51;;;;;;;1.70;1.17;;;2.50;99.90;;;;;;10059577;28;20079;-70
2024/01/08 01:32:42;;;;;;;2.03;1.17;;;2.40;99.90;;;;;;10059196;28;20049;-71
2024/01/08 01:37:32;;;;;;;1.42;0.88;;;2.50;99.90;;;;;;10056762;28;20048;-71
2024/01/08 01:42:23;;;;;;;1.80;1.10;;;2.50;99.90;;;;;;10054711;28;20291;-68
2024/01/08 01:47:15;;;;;;;2.25;1.20;;;2.40;99.90;;;;;;10058118;28;20507;-63
2024/01/08 01:52:07;;;;;;;1.95;1.08;;;2.40;99.90;;;;;;10058976;28;20059;-63
2024/01/08 01:57:00;;;;;;;2.35;1.27;;;2.30;99.90;;;;;;10058474;28;20047;-64
2024/01/08 02:01:51;;;;;;;1.40;1.02;;;2.40;99.90;;;;;;10057714;28;20065;-63
2024/01/08 02:06:44;;;;;;;1.55;1.10;;;2.40;99.90;;;;;;10058117;28;20395;-62
2024/01/08 02:11:34;;;;;;;0.88;0.75;;;2.40;99.90;;;;;;10059310;28;20476;-64
2024/01/08 02:16:25;;;;;;;3.53;1.25;;;2.50;99.90;;;;;;10058000;28;20108;-62
2024/01/08 02:21:16;;;;;;;4.40;1.30;;;2.50;99.90;;;;;;10056852;28;20586;-65
2024/01/08 02:26:07;;;;;;;1.52;0.90;;;2.50;99.90;;;;;;10057551;28;20526;-63
2024/01/08 02:30:58;;;;;;;2.50;1.35;;;2.30;99.90;;;;;;10057006;28;20075;-64
2024/01/08 02:35:49;;;;;;;1.83;0.98;;;2.40;99.90;;;;;;10056761;28;20029;-63
2024/01/08 02:40:42;;;;;;;2.05;1.00;;;2.40;99.90;;;;;;10054837;28;20025;-62
2024/01/08 02:45:32;;;;;;;2.95;1.45;;;2.30;99.90;;;;;;10056724;28;20045;-64
2024/01/08 02:50:23;;;;;;;2.13;1.25;;;2.20;99.90;;;;;;10056869;28;20029;-65
2024/01/08 02:55:14;;;;;;;2.85;1.02;;;2.20;99.90;;;;;;10055394;28;20060;-62
2024/01/08 03:00:06;;;;;;;1.65;1.13;;;2.20;99.90;;;;;;10085059;28;20472;-63
2024/01/08 03:04:57;;;;;;;2.42;1.10;;;2.20;99.90;;;;;;10057153;28;20045;-63
2024/01/08 03:09:48;;;;;;;2.15;1.15;;;2.10;99.90;;;;;;10058120;28;20021;-62
2024/01/08 03:14:39;;;;;;;2.00;1.33;;;2.20;99.90;;;;;;10057437;28;20063;-64
2024/01/08 03:19:33;;;;;;;2.63;1.15;;;2.30;99.90;;;;;;10056268;28;20048;-63
2024/01/08 03:24:23;;;;;;;1.25;1.13;;;2.40;99.90;;;;;;10055467;28;20041;-62
2024/01/08 03:29:14;;;;;;;2.15;0.90;;;2.30;99.90;;;;;;10055500;28;20034;-63
2024/01/08 03:34:05;;;;;;;2.22;1.30;;;2.30;99.90;;;;;;10054022;28;20029;-63
2024/01/08 03:38:55;;;;;;;1.58;1.00;;;2.20;99.90;;;;;;10058036;28;20056;-62
2024/01/08 03:43:46;;;;;;;1.83;1.05;;;2.30;99.90;;;;;;10061490;28;20112;-66
2024/01/08 03:48:37;;;;;;;2.03;1.30;;;2.20;99.90;;;;;;10055805;28;20018;-73
2024/01/08 03:53:27;;;;;;;3.05;1.10;;;2.30;99.90;;;;;;10055108;28;20583;-69
2024/01/08 03:58:18;;;;;;;1.40;1.30;;;2.30;99.90;;;;;;10055688;28;20128;-69
2024/01/08 04:03:08;;;;;;;1.65;1.30;;;2.30;99.90;;;;;;10055680;28;20041;-72
2024/01/08 04:07:59;;;;;;;2.08;1.17;;;2.30;99.90;;;;;;10061966;28;20029;-69
2024/01/08 04:12:50;;;;;;;2.45;1.15;;;2.30;99.90;;;;;;10068888;28;20028;-71
2024/01/08 04:17:40;;;;;;;2.30;1.10;;;2.30;99.90;;;;;;10062271;28;20486;-72
2024/01/08 04:22:31;;;;;;;1.85;1.23;;;2.30;99.90;;;;;;10063505;28;20141;-70
2024/01/08 04:27:22;;;;;;;1.40;1.10;;;2.10;99.90;;;;;;10059505;28;20075;-70
2024/01/08 04:32:12;;;;;;;0.88;0.88;;;2.20;99.90;;;;;;10058762;28;20152;-74
2024/01/08 04:37:04;;;;;;;1.67;1.50;;;2.10;99.90;;;;;;10060338;28;20473;-69
2024/01/08 04:41:55;;;;;;;1.30;1.10;;;2.20;99.90;;;;;;10060005;28;20042;-73
2024/01/08 04:46:45;;;;;;;1.65;1.10;;;2.30;99.90;;;;;;10049838;28;20439;-65
2024/01/08 04:51:36;;;;;;;2.83;1.27;;;2.40;99.90;;;;;;10060624;28;20034;-66
2024/01/08 04:56:29;;;;;;;2.78;1.70;;;2.30;99.90;;;;;;10060418;28;20183;-62
2024/01/08 05:01:20;;;;;;;1.65;1.15;;;2.40;99.90;;;;;;10060385;28;20116;-63
2024/01/08 05:06:11;;;;;;;1.92;1.05;;;2.30;99.90;;;;;;10065522;28;20164;-67
2024/01/08 05:11:02;;;;;;;1.92;0.93;;;2.30;99.90;;;;;;10061714;28;20028;-64
2024/01/08 05:15:53;;;;;;;2.20;1.05;;;2.40;99.90;;;;;;10058909;28;20044;-65
2024/01/08 05:20:43;;;;;;;1.30;1.02;;;2.30;99.90;;;;;;10059028;28;20045;-65
2024/01/08 05:25:34;;;;;;;2.30;1.30;;;2.30;99.90;;;;;;10059812;28;20045;-63
2024/01/08 05:30:25;;;;;;;2.17;1.95;;;2.30;99.90;;;;;;10058660;28;20017;-63
2024/01/08 05:35:17;;;;;;;1.05;0.95;;;2.30;99.90;;;;;;10059103;28;20064;-67
2024/01/08 05:40:08;;;;;;;1.33;0.90;;;2.30;99.90;;;;;;10058730;28;20029;-64
2024/01/08 05:44:59;;;;;;;1.23;1.05;;;2.30;99.90;;;;;;10058751;28;20068;-63
2024/01/08 05:49:49;;;;;;;1.60;1.05;;;2.40;99.90;;;;;;10058299;28;20491;-64
2024/01/08 05:54:40;;;;;;;2.47;1.30;;;2.40;99.90;;;;;;10058104;28;20200;-65
2024/01/08 05:59:31;;;;;;;2.20;1.13;;;2.30;99.90;;;;;;10057591;28;20368;-64
2024/01/08 06:04:21;;;;;;;2.33;1.08;;;2.40;99.90;;;;;;10056645;28;20530;-63
2024/01/08 06:09:12;;;;;;;1.75;0.98;;;2.30;99.90;;;;;;10057692;28;20029;-63
2024/01/08 06:14:05;;;;;;;5.68;1.45;;;2.30;99.90;;;;;;10058690;28;20127;-62
2024/01/08 06:18:55;;;;;;;4.30;1.63;;;2.40;99.90;;;;;;10057464;28;20193;-63
2024/01/08 06:23:46;;;;;;;1.20;1.00;;;2.30;99.90;;;;;;10056767;28;20045;-65
2024/01/08 06:28:36;;;;;;;2.58;1.10;;;2.30;99.90;;;;;;10056769;28;20087;-62
2024/01/08 06:33:27;;;;;;;1.73;1.23;;;2.30;99.90;;;;;;10056645;28;20495;-64
2024/01/08 06:38:18;;;;;;;2.42;1.20;;;2.20;99.90;;;;;;10056772;28;20051;-63
2024/01/08 06:43:08;;;;;;;1.30;0.90;;;2.30;99.90;;;;;;10056173;28;20041;-68
2024/01/08 06:47:59;;;;;;;1.25;1.02;;;2.30;99.90;;;;;;10055536;28;20033;-68
2024/01/08 06:52:49;;;;;;;1.27;0.82;;;2.30;99.90;;;;;;10056213;28;20033;-66
2024/01/08 06:57:40;;;;;;;1.50;1.10;;;2.30;99.90;;;;;;10056423;28;20120;-62
2024/01/08 07:02:31;;;;;;;1.48;1.38;;;2.20;99.90;;;;;;10056069;28;20045;-64
2024/01/08 07:07:22;;;;;;;2.08;1.02;;;2.10;99.90;;;;;;10056646;28;20116;-62
2024/01/08 07:12:12;;;;;;;1.40;1.20;;;2.20;99.90;;;;;;10063033;28;20510;-64
2024/01/08 07:17:03;;;;;;;1.73;1.30;;;2.20;99.90;;;;;;10048593;28;20025;-63
2024/01/08 07:21:54;;;;;;;2.00;1.30;;;2.10;99.90;;;;;;10054544;28;20079;-65
2024/01/08 07:26:44;;;;;;;2.28;1.33;;;2.20;99.90;;;;;;10053699;28;20087;-65
2024/01/08 07:31:36;;;;;;;2.42;1.27;;;2.30;99.90;;;;;;10054579;28;20033;-65
2024/01/08 07:36:26;;;;;;;2.63;2.00;;;2.30;99.90;;;;;;10054144;28;20041;-72
2024/01/08 07:41:17;;;;;;;3.72;1.55;;;2.20;99.90;;;;;;10061298;28;20511;-68
2024/01/08 07:46:08;;;;;;;3.15;1.52;;;2.20;99.90;;;;;;10062956;28;20029;-66
2024/01/08 07:50:59;;;;;;;2.67;1.75;;;2.20;99.90;;;;;;10062743;28;20590;-63
2024/01/08 07:55:50;;;;;;;2.67;1.75;;;2.30;99.90;;;;;;10062487;28;20036;-64
2024/01/08 08:00:41;;;;;;;3.95;1.70;;;2.30;99.90;;;;;;10062314;28;20461;-68
2024/01/08 08:05:31;;;;;;;2.00;1.63;;;2.30;99.90;;;;;;10058282;28;20630;-67
2024/01/08 08:10:22;;;;;;;3.83;1.83;;;2.30;99.90;;;;;;10063213;28;20033;-64
2024/01/08 08:15:13;;;;;;;3.25;2.00;;;2.30;99.90;;;;;;10066336;28;20122;-63
2024/01/08 08:20:05;;;;;;;2.50;1.77;;;2.30;99.90;;;;;;10055942;28;20102;-65
2024/01/08 08:24:56;;;;;;;3.80;1.58;;;2.20;99.90;;;;;;10061069;28;20033;-62
2024/01/08 08:29:47;;;;;;;2.47;1.80;;;2.30;99.90;;;;;;10059751;28;20515;-66
2024/01/08 08:34:41;;;;;;;6.93;1.77;;;2.40;99.90;;;;;;10059795;28;20076;-67
2024/01/08 08:39:31;;;;;;;3.13;1.58;;;2.30;99.90;;;;;;10059929;28;20029;-65
2024/01/08 08:44:22;;;;;;;2.00;1.70;;;2.20;99.90;;;;;;10061223;28;20041;-64
2024/01/08 08:49:13;;;;;;;2.83;1.42;;;2.20;99.90;;;;;;10059993;28;20116;-65
2024/01/08 08:54:06;;;;;;;2.75;1.85;;;2.30;99.90;;;;;;10058458;28;20037;-62
2024/01/08 08:58:57;;;;;;;3.83;1.70;;;2.30;99.90;;;;;;10058524;28;20029;-64
2024/01/08 09:03:47;;;;;;;2.78;1.70;;;2.40;99.90;;;;;;10058038;28;20037;-67
2024/01/08 09:08:38;;;;;;;4.03;2.13;;;2.30;99.90;;;;;;10058962;28;20017;-65
2024/01/08 09:13:28;;;;;;;2.60;1.85;;;2.40;99.90;;;;;;10058654;28;20564;-63
2024/01/08 09:18:19;;;;;;;2.20;1.50;;;2.30;99.90;;;;;;10057496;28;20098;-65
2024/01/08 09:23:10;;;;;;;3.10;1.95;;;2.30;99.90;;;;;;10058829;28;20037;-64
2024/01/08 09:28:01;;;;;;;2.40;1.40;;;2.50;99.90;;;;;;10062913;28;20030;-70
2024/01/08 09:32:52;;;;;;;3.55;2.13;;;2.40;99.90;;;;;;10057754;28;20030;-68
2024/01/08 09:37:43;;;;;;;2.90;1.70;;;2.40;99.90;;;;;;10058245;28;20040;-66
2024/01/08 09:42:35;;;;;;;3.00;1.75;;;2.40;99.90;;;;;;10057884;28;20707;-65
2024/01/08 09:47:26;;;;;;;4.18;1.80;;;2.40;99.90;;;;;;10059328;28;20018;-65
2024/01/08 09:52:17;;;;;;;3.13;1.80;;;2.40;99.90;;;;;;10060350;28;20035;-63
2024/01/08 09:57:09;;;;;;;2.50;1.63;;;2.40;99.90;;;;;;10054453;28;20502;-66
2024/01/08 10:02:00;;;;;;;4.07;1.70;;;2.40;99.90;;;;;;10056703;28;20128;-67
2024/01/08 10:07:03;;;;;;;3.22;1.88;;;2.50;99.90;;;;;;10057225;28;20160;-65
2024/01/08 10:11:53;;;;;;;3.05;1.55;;;2.70;99.90;;;;;;10056962;28;20079;-64
2024/01/08 10:16:44;;;;;;;3.40;1.65;;;2.70;99.90;;;;;;10057302;28;20064;-65
2024/01/08 10:21:35;;;;;;;3.10;1.92;;;2.70;99.90;;;;;;10056127;28;20120;-65
2024/01/08 10:26:28;;;;;;;2.22;1.52;;;2.80;99.90;;;;;;10056990;28;20061;-64
2024/01/08 10:31:19;;;;;;;2.22;1.67;;;2.80;99.90;;;;;;10054358;28;20129;-67
2024/01/08 10:36:11;;;;;;;2.35;1.90;;;2.70;99.90;;;;;;10056700;28;20029;-65
2024/01/08 10:41:03;;;;;;;2.10;1.50;;;2.80;99.90;;;;;;10057174;28;20033;-65
2024/01/08 10:45:59;;;;;;;3.33;1.83;;;2.70;99.90;;;;;;10054741;28;20057;-65
2024/01/08 10:50:54;;;;;;;4.65;1.95;;;2.70;99.90;;;;;;10054485;28;20033;-67
2024/01/08 10:55:45;;;;;;;4.07;1.95;;;2.60;99.90;;;;;;10047015;28;20514;-67
2024/01/08 11:00:35;;;;;;;4.45;2.00;;;2.70;99.90;;;;;;10055406;28;20018;-65
2024/01/08 11:05:32;;;;;;;3.70;1.85;;;2.70;99.90;;;;;;10059465;28;20037;-76
2024/01/08 11:10:23;;;;;;;4.40;1.65;;;2.70;99.90;;;;;;10060200;28;20507;-65
2024/01/08 11:15:15;;;;;;;5.68;1.88;;;2.80;99.90;;;;;;10061724;28;20114;-65
2024/01/08 11:20:46;;;;;;;3.97;2.17;;;2.80;99.90;;;;;;10063191;28;20072;-67
2024/01/08 11:25:36;;;;;;;3.10;1.55;;;2.80;99.90;;;;;;10062580;28;20060;-66
2024/01/08 11:30:27;;;;;;;3.13;1.75;;;2.80;99.90;;;;;;10061960;28;20033;-65
2024/01/08 11:35:20;;;;;;;2.53;1.70;;;2.90;99.90;;;;;;10062563;28;20029;-65
2024/01/08 11:40:15;;;;;;;3.65;2.13;;;2.80;99.90;;;;;;10062218;28;20126;-65
2024/01/08 11:45:06;;;;;;;4.30;2.13;;;2.80;99.90;;;;;;10062647;28;20446;-71
2024/01/08 11:49:57;;;;;;;4.13;2.47;;;2.80;99.90;;;;;;10062229;28;20043;-66
2024/01/08 11:54:52;;;;;;;2.45;1.65;;;2.80;99.90;;;;;;10062520;28;20039;-66
2024/01/08 11:59:43;;;;;;;2.93;1.70;;;2.80;99.90;;;;;;10063855;28;20025;-66
2024/01/08 12:04:35;;;;;;;3.10;2.20;;;2.80;99.90;;;;;;10066772;28;20041;-67
2024/01/08 12:09:31;;;;;;;3.85;1.65;;;2.80;99.90;;;;;;10060892;28;20073;-65
2024/01/08 12:14:21;;;;;;;3.00;1.77;;;2.80;99.90;;;;;;10059131;28;20522;-65
2024/01/08 12:19:14;;;;;;;3.60;1.95;;;2.70;99.90;;;;;;10061371;28;20059;-66
2024/01/08 12:24:05;;;;;;;2.92;2.10;;;2.80;99.90;;;;;;10061125;28;20084;-66
2024/01/08 12:28:56;;;;;;;3.55;1.88;;;2.80;99.90;;;;;;10061052;28;20294;-70
2024/01/08 12:33:46;;;;;;;4.38;2.15;;;2.80;99.90;;;;;;10059590;28;20071;-65
2024/01/08 12:38:37;;;;;;;3.75;1.63;;;2.70;99.90;;;;;;10069780;28;20039;-65
2024/01/08 12:43:28;;;;;;;5.40;2.03;;;2.60;99.90;;;;;;10060454;28;20040;-67
2024/01/08 12:48:18;;;;;;;3.88;2.25;;;2.70;99.90;;;;;;10060665;28;20077;-66
2024/01/08 12:53:09;;;;;;;4.97;2.58;;;2.70;99.90;;;;;;10060269;28;20491;-66
2024/01/08 12:58:00;;;;;;;2.90;2.35;;;2.80;99.90;;;;;;10064954;28;20047;-64
2024/01/08 13:02:51;;;;;;;3.53;1.85;;;2.80;99.90;;;;;;10059336;28;20040;-65
2024/01/08 13:07:41;;;;;;;4.43;2.47;;;2.70;99.90;;;;;;10059472;28;20560;-66
2024/01/08 13:12:32;;;;;;;3.75;2.17;;;2.70;99.90;;;;;;10062747;28;20079;-62
2024/01/08 13:17:24;;;;;;;2.33;1.88;;;2.70;99.90;;;;;;10060352;28;20351;-65
2024/01/08 13:22:15;;;;;;;3.00;1.58;;;2.70;99.90;;;;;;10058123;28;20136;-64
2024/01/08 13:27:11;;;;;;;2.90;2.13;;;2.70;99.90;;;;;;10057699;28;20025;-67
2024/01/08 13:32:02;;;;;;;4.07;2.33;;;2.60;99.90;;;;;;10059475;28;20065;-63
2024/01/08 13:36:52;;;;;;;2.33;2.10;;;2.80;99.90;;;;;;10057832;28;20037;-65
2024/01/08 13:41:43;;;;;;;3.67;2.10;;;2.90;99.90;;;;;;10059725;28;20042;-72
2024/01/08 13:46:34;;;;;;;3.60;1.88;;;2.80;99.90;;;;;;10058753;28;20026;-65
2024/01/08 13:51:24;;;;;;;5.53;1.67;;;2.70;99.90;;;;;;10058115;28;20025;-63
2024/01/08 13:56:15;;;;;;;4.88;2.28;;;2.50;99.90;;;;;;10058939;28;20109;-67
2024/01/08 14:01:08;;;;;;;3.25;2.00;;;2.60;99.90;;;;;;10065870;28;20481;-68
2024/01/08 14:05:58;;;;;;;3.17;1.75;;;2.50;99.90;;;;;;10056056;28;20174;-66
2024/01/08 14:10:50;;;;;;;2.85;1.73;;;2.50;99.90;;;;;;10056551;28;20036;-72
2024/01/08 14:15:40;;;;;;;2.67;1.73;;;2.40;99.90;;;;;;10057320;28;20041;-70
2024/01/08 14:20:31;;;;;;;4.55;1.85;;;2.40;99.90;;;;;;10056515;28;20411;-67
2024/01/08 14:25:22;;;;;;;4.45;1.92;;;2.60;99.90;;;;;;10093443;28;20124;-68
2024/01/08 14:30:14;;;;;;;4.75;2.20;;;2.60;99.90;;;;;;10056137;28;20099;-72
2024/01/08 14:35:12;;;;;;;3.58;1.83;;;2.70;99.90;;;;;;10057082;28;20053;-72
2024/01/08 14:40:04;;;;;;;3.13;1.77;;;2.40;99.90;;;;;;10056373;28;20467;-67
2024/01/08 14:44:55;;;;;;;3.78;1.92;;;2.40;99.90;;;;;;10056348;28;20169;-68
2024/01/08 14:49:45;;;;;;;3.22;1.77;;;2.30;99.90;;;;;;10055396;28;20029;-67
2024/01/08 14:54:36;;;;;;;3.03;1.90;;;2.30;99.90;;;;;;10059650;28;20406;-68
2024/01/08 14:59:27;;;;;;;2.70;1.92;;;2.10;99.90;;;;;;10055661;28;20266;-71
2024/01/08 15:04:17;;;;;;;3.78;2.58;;;2.10;99.90;;;;;;10055486;28;20034;-71
2024/01/08 15:09:10;;;;;;;4.05;2.05;;;2.00;99.90;;;;;;10058230;28;20055;-67
2024/01/08 15:14:00;;;;;;;5.32;2.00;;;2.10;99.90;;;;;;10063311;28;20033;-71
2024/01/08 15:18:51;;;;;;;2.85;1.50;;;2.10;99.90;;;;;;10052689;28;20045;-73
2024/01/08 15:23:42;;;;;;;3.30;2.10;;;2.10;99.90;;;;;;10055138;28;20041;-68
2024/01/08 15:28:34;;;;;;;3.70;2.30;;;2.10;99.90;;;;;;10052789;28;20033;-74
2024/01/08 15:33:25;;;;;;;5.25;2.45;;;2.00;99.90;;;;;;10053658;28;20017;-72
2024/01/08 15:38:16;;;;;;;5.25;2.42;;;2.00;99.90;;;;;;10055257;28;20026;-64
2024/01/08 15:43:07;;;;;;;3.30;1.98;;;2.00;99.90;;;;;;10054678;28;20046;-68
2024/01/08 15:47:57;;;;;;;3.47;2.05;;;1.90;99.90;;;;;;10055675;28;20100;-64
2024/01/08 15:52:48;;;;;;;5.70;2.35;;;1.90;99.90;;;;;;10053989;28;20103;-69
2024/01/08 15:57:39;;;;;;;5.18;2.65;;;1.90;99.90;;;;;;10055942;28;20034;-68
2024/01/08 16:02:31;;;;;;;3.30;2.05;;;1.90;99.90;;;;;;10063841;28;20040;-81
2024/01/08 16:07:21;;;;;;;3.50;2.00;;;1.80;99.90;;;;;;10067903;28;20033;-80
2024/01/08 16:12:12;;;;;;;7.00;2.42;;;1.70;99.90;;;;;;10073889;28;20017;-74
2024/01/08 16:17:03;;;;;;;3.95;2.50;;;1.70;99.90;;;;;;10066737;28;20049;-78
2024/01/08 16:21:55;;;;;;;5.00;2.20;;;1.70;99.90;;;;;;10066103;28;20057;-73
2024/01/08 16:26:45;;;;;;;4.78;2.38;;;1.70;99.90;;;;;;10072375;28;20036;-72
2024/01/08 16:31:36;;;;;;;6.22;2.58;;;1.60;99.90;;;;;;10060561;28;20149;-69
2024/01/08 16:36:27;;;;;;;3.88;2.67;;;1.70;99.90;;;;;;10054053;28;20036;-70
2024/01/08 16:41:17;;;;;;;4.40;2.28;;;1.70;99.90;;;;;;10060192;28;20033;-66
2024/01/08 16:46:08;;;;;;;3.53;1.88;;;1.70;99.90;;;;;;10055291;28;20033;-72
2024/01/08 16:51:05;;;;;;;8.70;2.95;;;1.70;99.90;;;;;;10056700;28;20086;-65
2024/01/08 16:55:55;;;;;;;4.63;2.60;;;1.70;99.90;;;;;;10059006;28;20032;-65
2024/01/08 17:00:46;;;;;;;4.80;3.30;;;1.50;99.90;;;;;;10060413;28;20085;-70
2024/01/08 17:05:37;;;;;;;5.70;3.13;;;1.50;99.90;;;;;;10061171;28;20142;-66
2024/01/08 17:10:30;;;;;;;5.75;2.72;;;1.50;99.90;;;;;;10057564;28;20646;-66
2024/01/08 17:15:21;;;;;;;5.22;2.03;;;1.50;99.90;;;;;;10058133;28;20380;-67
2024/01/08 17:20:12;;;;;;;5.05;2.80;;;1.40;99.90;;;;;;10057781;28;20049;-69
2024/01/08 17:25:03;;;;;;;4.80;2.80;;;1.40;99.90;;;;;;10057686;28;20523;-67
2024/01/08 17:29:54;;;;;;;4.72;2.92;;;1.30;99.90;;;;;;10058150;28;20026;-67
2024/01/08 17:34:45;;;;;;;6.22;2.65;;;1.30;99.90;;;;;;10058091;28;20033;-68
2024/01/08 17:39:35;;;;;;;5.60;2.67;;;1.40;99.90;;;;;;10059822;28;20021;-70
2024/01/08 17:44:27;;;;;;;5.63;3.28;;;1.30;99.90;;;;;;10062802;28;20045;-68
2024/01/08 17:49:20;;;;;;;6.25;3.30;;;1.30;99.90;;;;;;10058576;28;20077;-65
2024/01/08 17:54:11;;;;;;;6.95;3.03;;;1.30;99.90;;;;;;10063970;28;20030;-68
2024/01/08 17:59:02;;;;;;;6.70;3.70;;;1.40;99.90;;;;;;10057909;28;20032;-66
2024/01/08 18:03:53;;;;;;;8.18;3.42;;;1.30;99.90;;;;;;10053527;28;20048;-67
2024/01/08 18:08:43;;;;;;;5.35;2.63;;;1.30;99.90;;;;;;10057168;28;20022;-71
2024/01/08 18:13:34;;;;;;;4.93;3.30;;;1.30;99.90;;;;;;10051676;28;20029;-70
2024/01/08 18:18:25;;;;;;;5.82;3.47;;;1.30;99.90;;;;;;10053211;28;20045;-68
2024/01/08 18:23:17;;;;;;;7.40;3.63;;;1.30;99.90;;;;;;10057213;28;20041;-69
2024/01/08 18:28:08;;;;;;;7.45;3.75;;;1.30;99.90;;;;;;10058397;28;20068;-68
2024/01/08 18:32:59;;;;;;;8.98;4.70;;;1.20;99.90;;;;;;10058639;28;20056;-67
2024/01/08 18:37:50;;;;;;;7.63;4.22;;;1.30;99.90;;;;;;10057406;28;20025;-68
2024/01/08 18:42:41;;;;;;;7.50;3.67;;;1.20;99.90;;;;;;10057017;28;20045;-65
2024/01/08 18:47:31;;;;;;;6.72;3.75;;;1.20;99.90;;;;;;10055935;28;20029;-66
2024/01/08 18:52:22;;;;;;;8.82;3.80;;;1.20;99.90;;;;;;10056274;28;20041;-67
2024/01/08 18:57:16;;;;;;;4.95;3.42;;;1.20;99.90;;;;;;10056649;28;20044;-65
2024/01/08 19:02:06;;;;;;;10.23;3.67;;;1.00;99.90;;;;;;10056787;28;20752;-66
2024/01/08 19:06:58;;;;;;;8.50;4.13;;;1.30;99.90;;;;;;10056747;28;20034;-66
2024/01/08 19:11:51;;;;;;;9.88;5.18;;;1.20;99.90;;;;;;10057510;28;20037;-70
2024/01/08 19:16:42;;;;;;;8.63;4.85;;;1.20;99.90;;;;;;10062551;28;20033;-66
2024/01/08 19:21:32;;;;;;;5.93;3.33;;;1.20;99.90;;;;;;10056031;28;20711;-78
2024/01/08 19:26:23;;;;;;;8.93;4.10;;;1.20;99.90;;;;;;10055814;28;20052;-66
2024/01/08 19:31:15;;;;;;;9.07;3.78;;;1.20;99.90;;;;;;10055612;28;20021;-68
2024/01/08 19:36:06;;;;;;;11.45;3.88;;;1.00;99.90;;;;;;10060784;28;20511;-67
2024/01/08 19:40:57;;;;;;;8.05;4.50;;;0.90;99.90;;;;;;10063984;28;20037;-66
2024/01/08 19:45:47;;;;;;;7.85;3.80;;;0.90;99.90;;;;;;10064253;28;20044;-67
2024/01/08 19:50:38;;;;;;;8.90;3.67;;;0.80;99.90;;;;;;10059272;28;20168;-67
2024/01/08 19:55:29;;;;;;;6.50;3.25;;;0.80;99.90;;;;;;10061579;28;20063;-67
2024/01/08 20:00:19;;;;;;;7.95;3.80;;;0.80;99.90;;;;;;10062208;28;20115;-67
2024/01/08 20:05:10;;;;;;;8.95;4.03;;;0.70;99.90;;;;;;10060770;28;20132;-67
2024/01/08 20:10:03;;;;;;;6.68;3.42;;;0.70;99.90;;;;;;10067409;28;20033;-66
2024/01/08 20:14:54;;;;;;;9.60;4.03;;;0.70;99.90;;;;;;10064907;28;20566;-67
2024/01/08 20:19:46;;;;;;;7.05;3.28;;;0.60;99.90;;;;;;10059848;28;20069;-66
2024/01/08 20:24:36;;;;;;;7.30;4.00;;;0.70;99.90;;;;;;10062355;28;20513;-67
2024/01/08 20:29:27;;;;;;;15.43;4.55;;;0.80;99.90;;;;;;10061899;28;20039;-69
2024/01/08 20:34:17;;;;;;;10.27;4.32;;;0.60;99.90;;;;;;10060392;28;20045;-67
2024/01/08 20:39:10;;;;;;;9.25;3.67;;;0.50;99.90;;;;;;10061391;28;20017;-68
2024/01/08 20:44:01;;;;;;;9.30;3.60;;;0.60;99.90;;;;;;10061406;28;20033;-66
2024/01/08 20:48:51;;;;;;;9.25;4.00;;;0.60;99.90;;;;;;10061097;28;20017;-67
2024/01/08 20:53:42;;;;;;;8.38;3.47;;;0.60;99.90;;;;;;10059751;28;20434;-70
2024/01/08 20:58:33;;;;;;;7.63;3.70;;;0.50;99.90;;;;;;10059414;28;20030;-67
2024/01/08 21:03:23;;;;;;;9.20;4.25;;;0.50;99.90;;;;;;10059431;28;20159;-67
2024/01/08 21:08:15;;;;;;;9.02;3.70;;;0.60;99.90;;;;;;10060426;28;20734;-66
2024/01/08 21:13:05;;;;;;;7.13;3.60;;;0.50;99.90;;;;;;10060873;28;20034;-67
2024/01/08 21:17:56;;;;;;;8.57;3.95;;;0.50;99.90;;;;;;10059496;28;20032;-66
2024/01/08 21:22:47;;;;;;;7.93;3.97;;;0.40;99.90;;;;;;10053540;28;20511;-63
2024/01/08 21:27:40;;;;;;;6.10;4.20;;;0.30;99.90;;;;;;10060031;28;20549;-64
2024/01/08 21:32:30;;;;;;;7.32;3.97;;;0.40;99.90;;;;;;10059180;28;20037;-64
2024/01/08 21:37:21;;;;;;;8.73;4.03;;;0.30;99.90;;;;;;10063496;28;20561;-62
2024/01/08 21:42:12;;;;;;;6.30;3.50;;;0.30;99.90;;;;;;10059626;28;20041;-68
2024/01/08 21:47:03;;;;;;;4.88;3.35;;;0.30;99.90;;;;;;10048910;28;20041;-66
2024/01/08 21:51:53;;;;;;;9.15;4.68;;;0.30;99.90;;;;;;10036029;28;20116;-66
2024/01/08 21:56:44;;;;;;;6.43;3.60;;;0.30;99.90;;;;;;10054145;28;20125;-65
2024/01/08 22:01:35;;;;;;;9.65;4.10;;;0.20;99.90;;;;;;10057247;28;20072;-65
2024/01/08 22:06:26;;;;;;;11.88;4.78;;;0.10;99.90;;;;;;10057255;28;20021;-67
2024/01/08 22:11:16;;;;;;;9.35;3.60;;;0.10;99.90;;;;;;10064642;28;20040;-65
2024/01/08 22:16:10;;;;;;;8.05;3.88;;;0.10;99.90;;;;;;10052596;28;20043;-75
2024/01/08 22:21:01;;;;;;;6.88;4.20;;;0.00;99.90;;;;;;10057492;28;20053;-63
2024/01/08 22:25:52;;;;;;;7.93;3.70;;;-0.10;99.90;;;;;;10056911;28;20467;-63
2024/01/08 22:30:43;;;;;;;7.30;3.97;;;0.00;99.90;;;;;;10057521;28;20039;-62
2024/01/08 22:35:33;;;;;;;7.57;3.65;;;0.00;99.90;;;;;;10058429;28;20457;-75
2024/01/08 22:40:24;;;;;;;6.90;4.90;;;-0.10;99.90;;;;;;10058713;28;20033;-62
2024/01/08 22:45:14;;;;;;;9.32;4.18;;;-0.10;99.90;;;;;;10057573;28;20048;-62
2024/01/08 22:50:06;;;;;;;7.70;3.88;;;-0.10;99.90;;;;;;10056981;28;20052;-72
2024/01/08 22:54:56;;;;;;;6.70;3.70;;;-0.30;99.90;;;;;;10057389;28;20091;-64
2024/01/08 22:59:47;;;;;;;7.57;4.10;;;-0.30;99.90;;;;;;10060520;28;20036;-74
2024/01/08 23:04:40;;;;;;;8.38;4.07;;;-0.30;99.90;;;;;;10054581;28;20037;-69
2024/01/08 23:09:30;;;;;;;7.50;3.50;;;-0.40;99.90;;;;;;10054736;28;20026;-72
2024/01/08 23:14:21;;;;;;;8.10;4.30;;;-0.30;99.90;;;;;;10056778;28;20123;-72
2024/01/08 23:19:12;;;;;;;11.98;4.22;;;-0.30;99.90;;;;;;10056430;28;20065;-78
2024/01/08 23:24:03;;;;;;;6.25;3.67;;;-0.40;99.90;;;;;;10041865;28;20037;-77
2024/01/08 23:28:54;;;;;;;11.15;4.10;;;-0.40;99.90;;;;;;10056230;28;20040;-68
2024/01/08 23:33:45;;;;;;;8.70;4.03;;;-0.40;99.90;;;;;;10056644;28;20507;-76
2024/01/08 23:38:35;;;;;;;8.77;3.95;;;-0.40;99.90;;;;;;10057738;28;20616;-77
2024/01/08 23:43:26;;;;;;;8.15;4.18;;;-0.40;99.90;;;;;;10054930;28;20474;-73
2024/01/08 23:48:16;;;;;;;7.53;3.75;;;-0.40;99.90;;;;;;10055637;28;20039;-73
2024/01/08 23:53:07;;;;;;;11.15;4.32;;;-0.50;99.90;;;;;;10056963;28;20033;-75
2024/01/08 23:57:58;;;;;;;8.13;3.53;;;-0.50;99.90;;;;;;10056279;28;20033;-74
